Time;durP1;ratioP1;P1;durP2;ratioP2;P2;SDS_P1;SDS_P2;PMS_P1;PMS_P2;Temp;Humidity;BMP_temperature;BMP_pressure;BME280_temperature;BME280_humidity;BME280_pressure;Samples;Min_cycle;Max_cycle;Signal;HPM_P1;HPM_P2
2022/06/03 00:03:17;;;;;;;2.00;1.00;;;16.60;51.40;;;;;;5025110;28;20413;-77
2022/06/03 00:06:23;;;;;;;2.63;1.30;;;16.50;51.90;;;;;;5005191;28;20424;-77
2022/06/03 00:09:33;;;;;;;1.90;1.17;;;16.50;52.90;;;;;;5014466;28;20435;-77
2022/06/03 00:12:35;;;;;;;3.50;1.43;;;16.40;51.40;;;;;;5020974;28;20865;-77
2022/06/03 00:15:45;;;;;;;3.53;1.07;;;16.40;50.70;;;;;;5006668;28;20453;-77
2022/06/03 00:18:48;;;;;;;3.90;1.10;;;16.40;53.90;;;;;;5022613;28;21031;-77
2022/06/03 00:21:57;;;;;;;2.93;1.17;;;16.40;53.90;;;;;;5013774;28;20472;-77
2022/06/03 00:25:07;;;;;;;2.00;1.00;;;16.20;54.80;;;;;;5008499;28;20435;-77
2022/06/03 00:28:16;;;;;;;2.23;1.10;;;16.10;51.90;;;;;;5013300;28;20456;-77
2022/06/03 00:31:13;;;;;;;2.30;1.20;;;16.10;56.30;;;;;;4994413;28;20438;-77
2022/06/03 00:34:18;;;;;;;4.90;1.20;;;16.00;52.40;;;;;;5013774;28;20420;-77
2022/06/03 00:37:23;;;;;;;3.67;1.20;;;16.00;54.60;;;;;;5025777;28;20428;-77
2022/06/03 00:40:36;;;;;;;2.43;1.27;;;15.90;56.80;;;;;;5022044;28;20407;-77
2022/06/03 00:43:41;;;;;;;3.50;1.40;;;15.90;56.40;;;;;;4997375;28;20827;-76
2022/06/03 00:46:46;;;;;;;3.90;1.30;;;15.80;54.30;;;;;;5014858;28;20402;-76
2022/06/03 00:49:51;;;;;;;2.20;1.30;;;15.70;55.40;;;;;;5020017;28;20434;-76
2022/06/03 00:53:29;;;;;;;1.87;1.27;;;15.70;56.70;;;;;;5020484;28;20848;-77
2022/06/03 00:56:39;;;;;;;2.83;2.03;;;15.70;55.40;;;;;;4983243;28;21149;-76
2022/06/03 00:59:50;;;;;;;4.97;1.60;;;15.70;55.00;;;;;;5017670;28;20434;-76
2022/06/03 01:02:52;;;;;;;2.10;1.47;;;15.80;56.30;;;;;;5021096;28;20553;-76
2022/06/03 01:05:57;;;;;;;3.10;1.23;;;15.80;55.50;;;;;;5009648;28;20427;-77
2022/06/03 01:09:01;;;;;;;2.30;1.40;;;15.80;55.50;;;;;;5027830;28;20504;-77
2022/06/03 01:12:00;;;;;;;2.00;1.30;;;15.80;54.40;;;;;;5020490;28;20538;-76
2022/06/03 01:15:04;;;;;;;2.70;1.40;;;15.60;53.50;;;;;;5009566;28;20479;-77
2022/06/03 01:18:06;;;;;;;1.80;1.10;;;15.60;53.50;;;;;;5023899;28;20425;-76
2022/06/03 01:21:06;;;;;;;2.37;1.33;;;15.70;53.00;;;;;;5020014;28;20500;-77
2022/06/03 01:24:18;;;;;;;2.40;1.40;;;15.70;55.20;;;;;;5004776;28;20563;-77
2022/06/03 01:27:56;;;;;;;2.00;1.47;;;15.70;56.00;;;;;;5013704;28;20527;-76
2022/06/03 01:31:02;;;;;;;6.90;1.40;;;15.50;58.50;;;;;;4945355;28;20894;-77
2022/06/03 01:34:04;;;;;;;2.10;1.30;;;15.50;58.50;;;;;;5001224;28;20453;-77
2022/06/03 01:37:07;;;;;;;2.23;1.30;;;15.50;57.40;;;;;;5017591;28;20471;-77
2022/06/03 01:40:06;;;;;;;2.23;1.27;;;15.50;57.30;;;;;;5026079;28;20456;-77
2022/06/03 01:43:29;;;;;;;1.80;1.20;;;15.60;59.20;;;;;;5012629;28;20786;-77
2022/06/03 01:46:25;;;;;;;1.90;1.10;;;15.50;58.90;;;;;;4954098;28;20888;-76
2022/06/03 01:49:30;;;;;;;1.60;0.90;;;15.60;58.00;;;;;;5022734;28;20444;-77
2022/06/03 01:53:00;;;;;;;8.20;1.17;;;15.50;58.30;;;;;;5017855;28;20523;-77
2022/06/03 01:56:31;;;;;;;4.23;1.63;;;15.50;60.10;;;;;;4999901;28;21025;-77
2022/06/03 01:59:58;;;;;;;1.73;1.20;;;15.40;60.10;;;;;;4954370;28;20434;-77
2022/06/03 02:03:03;;;;;;;2.03;1.40;;;15.30;61.10;;;;;;5023853;28;20448;-77
2022/06/03 02:06:18;;;;;;;3.50;1.30;;;15.20;62.90;;;;;;5002838;28;20461;-77
2022/06/03 02:09:33;;;;;;;2.63;1.30;;;15.20;62.70;;;;;;5008152;28;20408;-77
2022/06/03 02:12:46;;;;;;;4.70;1.73;;;15.20;62.70;;;;;;5015893;28;20499;-77
2022/06/03 02:15:51;;;;;;;5.20;1.60;;;15.20;64.50;;;;;;5016801;28;20451;-77
2022/06/03 02:19:10;;;;;;;3.00;1.37;;;15.00;63.40;;;;;;5013599;28;20436;-77
2022/06/03 02:22:29;;;;;;;5.00;1.50;;;15.00;63.20;;;;;;5013483;28;20573;-77
2022/06/03 02:25:34;;;;;;;2.23;1.40;;;14.90;65.70;;;;;;5011379;28;20970;-76
2022/06/03 02:28:48;;;;;;;3.10;1.47;;;14.80;65.80;;;;;;5024523;28;20428;-76
2022/06/03 02:31:43;;;;;;;2.20;1.33;;;14.70;66.20;;;;;;5019534;28;20592;-77
2022/06/03 02:34:59;;;;;;;2.00;1.40;;;14.60;64.50;;;;;;5003244;28;20565;-77
2022/06/03 02:38:24;;;;;;;2.70;1.50;;;14.70;66.30;;;;;;5017992;28;20776;-77
2022/06/03 02:41:46;;;;;;;4.57;1.20;;;14.60;65.40;;;;;;5012222;28;20481;-77
2022/06/03 02:45:01;;;;;;;6.53;1.80;;;14.50;67.10;;;;;;5005792;28;20444;-76
2022/06/03 02:48:32;;;;;;;2.70;1.40;;;14.40;67.90;;;;;;4992084;28;20395;-77
2022/06/03 02:51:36;;;;;;;8.70;1.87;;;14.40;67.80;;;;;;5015684;28;20432;-77
2022/06/03 02:55:00;;;;;;;6.00;1.60;;;14.40;67.10;;;;;;5000929;28;20525;-77
2022/06/03 02:58:11;;;;;;;9.20;1.73;;;14.30;69.70;;;;;;5019621;28;20564;-77
2022/06/03 03:01:14;;;;;;;3.50;2.10;;;14.20;68.10;;;;;;5031224;28;20564;-76
2022/06/03 03:04:21;;;;;;;2.40;1.50;;;14.20;70.20;;;;;;5012176;28;20426;-77
2022/06/03 03:07:34;;;;;;;2.60;1.70;;;14.30;70.30;;;;;;5003704;28;20430;-77
2022/06/03 03:10:53;;;;;;;5.00;1.43;;;14.10;69.80;;;;;;5023308;28;20957;-76
2022/06/03 03:14:19;;;;;;;14.83;1.90;;;14.10;70.60;;;;;;5000490;28;20555;-76
2022/06/03 03:17:38;;;;;;;3.30;1.60;;;13.90;71.40;;;;;;5023890;28;20555;-76
2022/06/03 03:20:51;;;;;;;10.10;1.50;;;13.90;73.40;;;;;;5015991;28;20430;-76
2022/06/03 03:24:02;;;;;;;16.90;2.10;;;13.90;74.50;;;;;;5002046;28;20977;-77
2022/06/03 03:26:55;;;;;;;5.80;1.77;;;13.90;73.50;;;;;;5024153;28;20434;-76
2022/06/03 03:29:56;;;;;;;3.50;1.80;;;14.00;75.40;;;;;;5022811;28;20403;-76
2022/06/03 03:33:11;;;;;;;2.00;1.33;;;13.90;74.10;;;;;;5010197;28;20491;-76
2022/06/03 03:36:28;;;;;;;2.80;1.90;;;13.90;76.50;;;;;;5006894;28;20392;-76
2022/06/03 03:39:54;;;;;;;2.10;1.47;;;13.80;77.30;;;;;;5012694;28;20491;-77
2022/06/03 03:43:24;;;;;;;2.10;1.20;;;13.80;78.90;;;;;;5010247;28;20425;-77
2022/06/03 03:46:59;;;;;;;3.80;1.60;;;13.80;78.50;;;;;;4964171;28;20559;-76
2022/06/03 03:50:18;;;;;;;2.73;1.70;;;13.70;79.60;;;;;;5004392;28;20439;-77
2022/06/03 03:53:31;;;;;;;2.67;1.63;;;13.70;81.60;;;;;;5004309;28;20472;-76
2022/06/03 03:56:46;;;;;;;4.63;1.87;;;13.80;83.40;;;;;;5005764;28;20496;-77
2022/06/03 04:00:24;;;;;;;2.20;1.10;;;13.90;84.10;;;;;;5019618;28;20818;-77
2022/06/03 04:03:45;;;;;;;3.13;1.60;;;13.90;82.70;;;;;;4965452;28;20478;-76
2022/06/03 04:07:13;;;;;;;1.90;1.30;;;13.90;80.60;;;;;;5005100;28;20475;-76
2022/06/03 04:10:30;;;;;;;2.10;1.20;;;14.00;83.50;;;;;;5016277;28;20603;-76
2022/06/03 04:13:43;;;;;;;2.10;1.60;;;14.00;83.50;;;;;;5000900;28;20452;-77
2022/06/03 04:16:47;;;;;;;2.20;1.57;;;14.10;83.20;;;;;;5016337;28;20433;-77
2022/06/03 04:20:09;;;;;;;2.70;1.80;;;14.30;85.20;;;;;;5014775;28;21031;-77
2022/06/03 04:23:31;;;;;;;2.30;1.60;;;14.40;86.80;;;;;;5012990;28;20418;-77
2022/06/03 04:26:54;;;;;;;2.40;1.43;;;14.50;85.30;;;;;;5018154;28;20447;-76
2022/06/03 04:30:18;;;;;;;2.93;1.50;;;14.60;86.80;;;;;;5023633;28;20419;-77
2022/06/03 04:33:52;;;;;;;2.83;1.40;;;14.70;87.90;;;;;;5014723;28;20491;-76
2022/06/03 04:37:17;;;;;;;2.00;1.27;;;14.80;88.00;;;;;;5023073;28;20472;-77
2022/06/03 04:40:44;;;;;;;2.30;1.50;;;14.80;88.20;;;;;;5021124;28;20444;-77
2022/06/03 04:44:14;;;;;;;4.83;2.50;;;14.90;89.90;;;;;;4987801;28;20485;-77
2022/06/03 04:47:41;;;;;;;4.23;2.10;;;15.00;88.80;;;;;;5021106;28;20531;-77
2022/06/03 04:51:06;;;;;;;2.70;2.17;;;15.10;88.00;;;;;;4985965;28;20822;-76
2022/06/03 04:54:37;;;;;;;3.33;1.67;;;15.30;89.00;;;;;;4981967;28;20527;-77
2022/06/03 04:58:06;;;;;;;4.23;1.97;;;15.30;90.60;;;;;;5017252;28;20535;-76
2022/06/03 05:01:28;;;;;;;4.60;1.70;;;15.50;92.80;;;;;;5014923;28;20440;-76
2022/06/03 05:04:48;;;;;;;4.23;2.10;;;15.60;92.10;;;;;;4997953;28;20983;-77
2022/06/03 05:08:32;;;;;;;2.83;1.70;;;15.60;92.60;;;;;;4986759;28;20429;-77
2022/06/03 05:12:07;;;;;;;3.33;2.03;;;15.70;93.10;;;;;;5006739;28;20866;-77
2022/06/03 05:15:42;;;;;;;4.27;2.90;;;15.80;94.10;;;;;;5007792;28;20547;-77
2022/06/03 05:19:04;;;;;;;3.33;2.10;;;16.00;94.90;;;;;;4993841;28;20517;-76
2022/06/03 05:22:40;;;;;;;3.37;1.80;;;16.00;96.90;;;;;;5008949;28;20460;-77
2022/06/03 05:25:59;;;;;;;2.93;1.90;;;16.00;99.90;;;;;;5017559;28;20966;-77
2022/06/03 05:29:16;;;;;;;8.03;1.77;;;16.10;99.30;;;;;;5024761;28;20427;-77
2022/06/03 05:32:35;;;;;;;3.20;1.83;;;16.30;99.80;;;;;;5005487;28;20456;-77
2022/06/03 05:35:38;;;;;;;2.83;1.67;;;16.40;99.50;;;;;;5019828;28;20923;-77
2022/06/03 05:38:44;;;;;;;2.00;1.50;;;16.50;99.30;;;;;;5008527;28;20528;-77
2022/06/03 05:45:32;;;;;;;3.50;2.50;;;16.60;98.70;;;;;;5019861;28;20427;-77
2022/06/03 05:48:24;;;;;;;4.07;1.73;;;16.80;97.40;;;;;;5017128;28;20808;-77
2022/06/03 05:51:19;;;;;;;2.53;1.70;;;16.80;92.60;;;;;;5010776;28;20942;-77
2022/06/03 05:54:14;;;;;;;3.03;1.70;;;16.90;92.90;;;;;;5008633;28;21009;-76
2022/06/03 05:57:15;;;;;;;4.50;1.33;;;17.00;90.80;;;;;;5014549;28;20567;-77
2022/06/03 06:00:22;;;;;;;2.80;1.70;;;17.10;90.60;;;;;;5015915;28;20496;-77
2022/06/03 06:03:28;;;;;;;2.17;1.50;;;17.30;88.30;;;;;;5012781;28;20460;-77
2022/06/03 06:06:31;;;;;;;2.87;1.80;;;17.50;86.90;;;;;;5018231;28;20596;-77
2022/06/03 06:09:54;;;;;;;2.67;1.50;;;17.70;82.70;;;;;;5016303;28;20428;-76
2022/06/03 06:12:56;;;;;;;2.93;1.43;;;17.80;79.00;;;;;;4990111;28;20567;-77
2022/06/03 06:16:06;;;;;;;2.97;1.80;;;18.10;72.60;;;;;;5012810;28;20433;-77
2022/06/03 06:18:59;;;;;;;5.00;1.83;;;18.30;72.80;;;;;;5021469;28;20432;-76
2022/06/03 06:22:05;;;;;;;2.40;1.60;;;18.40;70.50;;;;;;5004968;28;20574;-77
2022/06/03 06:24:57;;;;;;;3.10;1.90;;;18.60;67.00;;;;;;5027323;28;20935;-76
2022/06/03 06:28:05;;;;;;;3.33;2.13;;;18.70;62.90;;;;;;5019744;28;20457;-76
2022/06/03 06:31:27;;;;;;;4.27;1.83;;;18.80;61.40;;;;;;5003177;28;20502;-76
2022/06/03 06:34:29;;;;;;;4.27;1.70;;;18.90;57.00;;;;;;5020432;28;20476;-76
2022/06/03 06:37:40;;;;;;;2.70;1.80;;;19.00;60.90;;;;;;5015530;28;20424;-76
2022/06/03 06:40:40;;;;;;;2.87;2.37;;;19.10;64.20;;;;;;4992861;28;20477;-77
2022/06/03 06:43:39;;;;;;;3.60;1.83;;;19.20;63.50;;;;;;5017461;28;20429;-77
2022/06/03 06:46:34;;;;;;;5.53;2.10;;;19.30;61.30;;;;;;5022671;28;20452;-76
2022/06/03 06:49:28;;;;;;;2.70;1.73;;;19.30;61.10;;;;;;5011914;28;20449;-76
2022/06/03 06:52:41;;;;;;;3.00;1.87;;;19.50;59.50;;;;;;5016574;28;20841;-77
2022/06/03 06:55:38;;;;;;;2.97;2.07;;;19.60;59.30;;;;;;5012564;28;20574;-77
2022/06/03 06:58:42;;;;;;;2.40;1.80;;;19.70;56.80;;;;;;5023160;28;20448;-77
2022/06/03 07:01:34;;;;;;;3.20;2.27;;;19.80;56.40;;;;;;5004969;28;21520;-77
2022/06/03 07:04:25;;;;;;;5.90;2.00;;;20.00;56.90;;;;;;5015382;28;20429;-77
2022/06/03 07:07:19;;;;;;;10.27;2.03;;;20.10;54.60;;;;;;5006501;28;20581;-76
2022/06/03 07:10:11;;;;;;;4.40;1.80;;;20.10;52.00;;;;;;5000538;28;20450;-77
2022/06/03 07:13:09;;;;;;;5.90;2.00;;;20.20;55.50;;;;;;5006933;28;20513;-76
2022/06/03 07:16:06;;;;;;;5.13;1.87;;;20.30;55.90;;;;;;5008810;28;20465;-77
2022/06/03 07:22:15;;;;;;;2.70;1.90;;;20.50;53.80;;;;;;5007348;28;21038;-77
2022/06/03 07:25:08;;;;;;;2.57;1.87;;;20.70;54.10;;;;;;5010478;28;20446;-77
2022/06/03 07:27:59;;;;;;;3.13;2.00;;;20.70;52.20;;;;;;5019358;28;20954;-75
2022/06/03 07:30:53;;;;;;;2.83;1.93;;;20.70;52.80;;;;;;5011651;28;21232;-75
2022/06/03 07:33:57;;;;;;;3.83;2.13;;;20.70;55.80;;;;;;5009701;28;20546;-75
2022/06/03 07:36:48;;;;;;;3.33;2.00;;;20.70;54.10;;;;;;5028560;28;20407;-75
2022/06/03 07:39:42;;;;;;;3.80;2.00;;;20.90;54.30;;;;;;5011546;28;21055;-75
2022/06/03 07:42:38;;;;;;;3.47;2.43;;;21.00;54.40;;;;;;5024703;28;20531;-75
2022/06/03 07:45:34;;;;;;;4.43;2.30;;;21.10;50.90;;;;;;5010343;28;20905;-75
2022/06/03 07:48:23;;;;;;;6.83;2.43;;;21.20;54.60;;;;;;5014256;28;20445;-75
2022/06/03 07:51:17;;;;;;;2.80;2.27;;;21.40;52.00;;;;;;5015744;28;20471;-75
2022/06/03 07:54:07;;;;;;;4.30;2.57;;;21.40;50.60;;;;;;5012365;28;20469;-75
2022/06/03 07:57:01;;;;;;;8.50;2.40;;;21.40;49.00;;;;;;5043663;23;20619;-70
2022/06/03 07:59:47;;;;;;;3.20;2.20;;;21.50;49.70;;;;;;5021451;28;20483;-70
2022/06/03 08:02:33;;;;;;;4.97;2.80;;;21.60;51.30;;;;;;5030939;28;20443;-69
2022/06/03 08:05:21;;;;;;;4.17;2.30;;;21.70;50.80;;;;;;5029332;28;20550;-70
2022/06/03 08:11:27;;;;;;;2.70;2.07;;;21.80;52.60;;;;;;4985677;28;20446;-70
2022/06/03 08:14:12;;;;;;;4.77;2.50;;;22.00;50.90;;;;;;5009740;28;20555;-71
2022/06/03 08:16:58;;;;;;;3.80;3.20;;;22.00;49.20;;;;;;5012265;28;20469;-71
2022/06/03 08:19:44;;;;;;;5.70;2.63;;;22.00;48.90;;;;;;5006476;28;20457;-71
2022/06/03 08:22:32;;;;;;;3.53;2.40;;;21.90;47.40;;;;;;5006860;28;20458;-71
2022/06/03 08:25:21;;;;;;;4.57;2.17;;;21.90;49.10;;;;;;5005009;28;20473;-70
2022/06/03 08:28:12;;;;;;;5.50;2.80;;;21.90;50.60;;;;;;5009960;28;20444;-69
2022/06/03 08:31:01;;;;;;;5.33;2.60;;;22.10;51.80;;;;;;5007322;28;20545;-71
2022/06/03 08:33:51;;;;;;;6.63;4.27;;;22.20;49.90;;;;;;5011891;28;20473;-71
2022/06/03 08:36:41;;;;;;;3.17;2.40;;;22.20;49.80;;;;;;5014100;28;20419;-71
2022/06/03 08:39:31;;;;;;;3.80;2.33;;;22.30;50.60;;;;;;5001280;28;20453;-71
2022/06/03 08:42:26;;;;;;;3.40;2.57;;;22.50;52.00;;;;;;5012839;28;20469;-71
2022/06/03 08:45:21;;;;;;;3.13;2.40;;;22.50;48.70;;;;;;5007804;28;20456;-70
2022/06/03 08:48:12;;;;;;;3.80;2.30;;;22.60;48.90;;;;;;4994773;28;20505;-70
2022/06/03 08:51:00;;;;;;;3.87;2.53;;;22.60;50.40;;;;;;5005160;28;20481;-71
2022/06/03 08:53:50;;;;;;;4.43;2.50;;;22.70;47.40;;;;;;5018000;28;20719;-71
2022/06/03 08:56:41;;;;;;;5.90;2.50;;;22.70;47.70;;;;;;5004934;28;20465;-70
2022/06/03 08:59:33;;;;;;;6.50;3.30;;;22.80;48.60;;;;;;5003382;28;20581;-70
2022/06/03 09:02:25;;;;;;;6.37;2.90;;;22.80;50.80;;;;;;5004541;28;20473;-71
2022/06/03 09:05:17;;;;;;;4.03;3.10;;;22.90;53.00;;;;;;4997156;28;20474;-71
2022/06/03 09:08:12;;;;;;;4.53;2.70;;;23.00;51.00;;;;;;5002416;28;21015;-70
2022/06/03 09:11:02;;;;;;;4.93;2.63;;;23.10;50.90;;;;;;5010367;28;20454;-71
2022/06/03 09:14:00;;;;;;;3.23;2.40;;;23.20;49.90;;;;;;5013161;28;20468;-71
2022/06/03 09:16:48;;;;;;;3.63;2.40;;;23.20;50.20;;;;;;5013468;28;20462;-71
2022/06/03 09:19:40;;;;;;;3.67;2.47;;;23.30;50.50;;;;;;5002320;28;20461;-71
2022/06/03 09:22:28;;;;;;;4.20;2.47;;;23.40;52.80;;;;;;5013990;28;20437;-70
2022/06/03 09:25:17;;;;;;;3.00;2.43;;;23.50;52.10;;;;;;5009740;28;20473;-69
2022/06/03 09:28:06;;;;;;;8.93;3.13;;;23.70;50.90;;;;;;5002322;28;20455;-69
2022/06/03 09:30:54;;;;;;;3.47;2.77;;;23.80;51.30;;;;;;5005126;28;20421;-69
2022/06/03 09:33:42;;;;;;;5.23;3.07;;;24.00;49.00;;;;;;5010301;28;20549;-70
2022/06/03 09:36:30;;;;;;;3.63;2.43;;;24.00;47.20;;;;;;4998759;28;20560;-70
2022/06/03 09:39:19;;;;;;;4.30;2.97;;;24.00;48.90;;;;;;5006865;28;20968;-70
2022/06/03 09:42:06;;;;;;;2.90;2.40;;;24.10;49.60;;;;;;5011139;28;20428;-71
2022/06/03 09:44:53;;;;;;;4.33;2.40;;;24.30;49.40;;;;;;5008157;28;20426;-70
2022/06/03 09:47:40;;;;;;;4.63;2.90;;;24.30;49.30;;;;;;5003386;28;20461;-70
2022/06/03 09:50:27;;;;;;;5.37;2.50;;;24.40;50.40;;;;;;5008973;28;20485;-71
2022/06/03 09:53:13;;;;;;;3.20;2.40;;;24.60;52.50;;;;;;5012587;28;20441;-70
2022/06/03 09:56:02;;;;;;;3.93;2.70;;;24.70;48.60;;;;;;5000647;28;20524;-70
2022/06/03 09:58:50;;;;;;;2.90;2.37;;;24.80;48.70;;;;;;5010352;28;20915;-71
2022/06/03 10:01:36;;;;;;;3.20;2.33;;;24.80;44.70;;;;;;5010119;28;20441;-71
2022/06/03 10:04:24;;;;;;;3.37;2.30;;;24.60;44.50;;;;;;5009017;28;20448;-70
2022/06/03 10:07:10;;;;;;;5.40;2.80;;;24.60;44.50;;;;;;5001631;28;20473;-71
2022/06/03 10:13:00;;;;;;;4.23;2.47;;;25.00;46.70;;;;;;5004795;28;20487;-71
2022/06/03 10:15:53;;;;;;;4.73;2.80;;;25.20;45.10;;;;;;5002342;28;20548;-71
2022/06/03 10:18:42;;;;;;;4.53;2.43;;;25.30;43.50;;;;;;5009626;28;20469;-71
2022/06/03 10:21:33;;;;;;;3.00;2.50;;;25.40;45.20;;;;;;5008485;28;20600;-71
2022/06/03 10:24:23;;;;;;;5.00;2.60;;;25.40;42.50;;;;;;5006988;28;20445;-70
2022/06/03 10:27:08;;;;;;;2.77;2.10;;;25.30;42.80;;;;;;5007199;28;20508;-70
2022/06/03 10:29:59;;;;;;;3.80;2.63;;;25.30;45.10;;;;;;5004293;28;20457;-71
2022/06/03 10:32:51;;;;;;;13.40;2.70;;;25.50;45.30;;;;;;5009120;28;20536;-71
2022/06/03 10:35:39;;;;;;;2.90;2.03;;;25.70;43.60;;;;;;5006360;28;20485;-71
2022/06/03 10:38:29;;;;;;;2.97;2.33;;;25.80;42.30;;;;;;5005884;28;20442;-71
2022/06/03 10:41:14;;;;;;;3.27;2.70;;;25.90;44.90;;;;;;5008455;28;20796;-71
2022/06/03 10:44:00;;;;;;;3.67;3.00;;;25.90;43.60;;;;;;5008307;28;20527;-70
2022/06/03 10:46:54;;;;;;;5.97;3.00;;;26.00;43.20;;;;;;5008930;28;20592;-70
2022/06/03 10:49:52;;;;;;;4.07;2.50;;;26.10;44.70;;;;;;5005484;28;20441;-71
2022/06/03 11:01:53;;;;;;;4.47;2.63;;;26.40;40.80;;;;;;5006237;28;22080;-71
2022/06/03 11:04:40;;;;;;;5.63;2.67;;;26.50;41.10;;;;;;5008375;28;20524;-71
2022/06/03 11:07:29;;;;;;;7.20;2.70;;;26.50;42.40;;;;;;5004406;28;20453;-71
2022/06/03 11:10:17;;;;;;;3.87;2.50;;;26.50;40.70;;;;;;5004408;28;20453;-70
2022/06/03 11:13:06;;;;;;;3.70;2.70;;;26.50;40.10;;;;;;5008293;28;20453;-71
2022/06/03 11:15:52;;;;;;;3.37;3.00;;;26.60;43.30;;;;;;5005422;28;20489;-71
2022/06/03 11:18:37;;;;;;;2.90;2.40;;;26.70;41.80;;;;;;5002470;28;20476;-71
2022/06/03 11:21:25;;;;;;;4.03;3.00;;;26.80;41.90;;;;;;5003434;28;20481;-70
2022/06/03 11:24:11;;;;;;;4.80;2.60;;;26.90;41.40;;;;;;5007513;28;20539;-71
2022/06/03 11:26:56;;;;;;;4.27;2.90;;;27.00;40.80;;;;;;5004865;28;20477;-70
2022/06/03 11:29:47;;;;;;;3.67;2.63;;;27.00;39.60;;;;;;5000797;28;20458;-70
2022/06/03 11:32:35;;;;;;;3.27;2.40;;;26.90;40.10;;;;;;5004706;28;20449;-70
2022/06/03 11:35:28;;;;;;;3.80;2.93;;;27.00;44.90;;;;;;5003333;28;20573;-70
2022/06/03 11:38:19;;;;;;;6.60;3.10;;;27.10;42.00;;;;;;5002266;28;20450;-70
2022/06/03 11:41:10;;;;;;;7.57;2.67;;;27.20;41.20;;;;;;5004291;28;20453;-71
2022/06/03 11:43:59;;;;;;;11.93;3.47;;;27.20;40.30;;;;;;5007331;28;20437;-71
2022/06/03 11:46:52;;;;;;;5.13;2.87;;;27.30;40.80;;;;;;5008975;28;20575;-71
2022/06/03 11:49:38;;;;;;;3.63;2.40;;;27.30;41.60;;;;;;5002917;28;20466;-70
2022/06/03 11:52:24;;;;;;;3.37;2.77;;;27.30;40.10;;;;;;5006714;28;20499;-71
2022/06/03 11:55:11;;;;;;;7.40;2.97;;;27.30;42.70;;;;;;5006677;28;20480;-70
2022/06/03 11:58:01;;;;;;;4.00;2.63;;;27.10;40.90;;;;;;4999984;28;20963;-70
2022/06/03 12:00:52;;;;;;;3.97;3.03;;;27.10;40.30;;;;;;5007636;28;20481;-71
2022/06/03 12:03:44;;;;;;;3.90;3.27;;;27.00;40.30;;;;;;5007836;28;20500;-71
2022/06/03 12:06:37;;;;;;;3.77;3.10;;;27.00;40.90;;;;;;5008378;28;20543;-70
2022/06/03 12:09:45;;;;;;;3.20;2.40;;;27.10;40.90;;;;;;5001733;28;20445;-70
2022/06/03 12:15:58;;;;;;;4.10;3.23;;;27.50;44.40;;;;;;5005622;28;20881;-70
2022/06/03 12:19:04;;;;;;;7.63;2.80;;;27.60;39.60;;;;;;5001936;28;20499;-71
2022/06/03 12:22:18;;;;;;;7.53;2.90;;;27.70;39.40;;;;;;5000421;28;20493;-69
2022/06/03 12:25:06;;;;;;;5.20;2.67;;;27.90;41.50;;;;;;5006738;28;20512;-69
2022/06/03 12:27:54;;;;;;;3.40;3.10;;;27.90;40.20;;;;;;4999912;28;20739;-70
2022/06/03 12:30:47;;;;;;;5.23;3.10;;;27.70;39.70;;;;;;5003980;28;21060;-70
2022/06/03 12:33:36;;;;;;;6.03;3.07;;;27.50;40.40;;;;;;5002399;28;20445;-70
2022/06/03 12:36:50;;;;;;;4.13;3.10;;;27.30;39.70;;;;;;5004067;28;20476;-70
2022/06/03 12:39:57;;;;;;;6.53;3.27;;;27.10;41.60;;;;;;5007978;28;20450;-70
2022/06/03 12:42:45;;;;;;;3.63;2.90;;;26.70;41.80;;;;;;5010892;28;20502;-69
2022/06/03 12:45:33;;;;;;;4.50;3.00;;;26.60;44.90;;;;;;5006714;28;20469;-69
2022/06/03 12:48:38;;;;;;;5.63;3.50;;;26.50;45.80;;;;;;5006107;28;20461;-69
2022/06/03 12:51:26;;;;;;;4.40;2.60;;;26.40;49.50;;;;;;5010174;28;20444;-70
2022/06/03 12:54:18;;;;;;;6.33;3.00;;;26.30;55.90;;;;;;5007291;28;20457;-70
2022/06/03 12:57:09;;;;;;;7.20;3.47;;;26.20;49.20;;;;;;5005437;28;20561;-70
2022/06/03 12:59:59;;;;;;;7.63;3.50;;;26.10;48.80;;;;;;4999168;28;20532;-70
2022/06/03 13:02:51;;;;;;;7.43;3.87;;;26.00;50.40;;;;;;5010923;28;20445;-70
2022/06/03 13:05:40;;;;;;;4.10;3.30;;;25.90;51.60;;;;;;5007054;28;20856;-69
2022/06/03 13:09:34;;;;;;;5.33;3.17;;;25.80;49.70;;;;;;5002909;28;20810;-70
2022/06/03 13:11:48;;;;;;;4.77;2.90;;;25.70;51.60;;;;;;5012674;28;20425;-70
2022/06/03 13:14:33;;;;;;;5.30;3.30;;;25.70;51.10;;;;;;5011126;28;20469;-70
2022/06/03 13:17:58;;;;;;;8.90;3.70;;;25.50;54.10;;;;;;5002956;28;20454;-69
2022/06/03 13:20:47;;;;;;;4.73;3.40;;;25.40;58.00;;;;;;5010845;28;20433;-70
2022/06/03 13:23:35;;;;;;;5.60;2.93;;;25.40;60.90;;;;;;5011729;28;20434;-70
2022/06/03 13:27:09;;;;;;;10.50;2.80;;;25.40;64.30;;;;;;5007792;28;20820;-70
2022/06/03 13:30:13;;;;;;;5.53;2.97;;;25.20;64.70;;;;;;4956803;28;20438;-70
2022/06/03 13:33:01;;;;;;;3.90;3.37;;;25.10;64.90;;;;;;4963933;28;20797;-70
2022/06/03 13:36:01;;;;;;;3.50;3.00;;;25.10;65.80;;;;;;5010513;28;21010;-70
2022/06/03 13:38:48;;;;;;;3.70;3.20;;;25.00;70.40;;;;;;5008596;28;20497;-70
2022/06/03 13:45:10;;;;;;;3.40;3.10;;;24.80;80.90;;;;;;5010329;28;20450;-70
2022/06/03 13:47:59;;;;;;;6.30;3.70;;;24.70;84.80;;;;;;5009489;28;20503;-70
2022/06/03 13:50:45;;;;;;;6.23;3.60;;;24.60;91.40;;;;;;5006455;28;20561;-70
2022/06/03 13:53:31;;;;;;;6.90;3.30;;;24.30;91.80;;;;;;5014888;28;20505;-71
2022/06/03 13:56:22;;;;;;;5.07;4.23;;;24.10;96.00;;;;;;5015221;22;20506;-75
2022/06/03 13:59:17;;;;;;;5.03;3.97;;;24.00;97.70;;;;;;5010182;28;20500;-74
2022/06/03 14:02:14;;;;;;;5.00;3.60;;;23.90;99.90;;;;;;5008060;28;20445;-75
2022/06/03 14:05:04;;;;;;;8.17;4.20;;;23.80;99.90;;;;;;5005885;28;21025;-72
2022/06/03 14:07:56;;;;;;;7.50;4.53;;;23.70;99.90;;;;;;4991230;28;20442;-72
2022/06/03 14:10:48;;;;;;;4.93;4.00;;;23.50;99.90;;;;;;4990593;28;20455;-72
2022/06/03 14:13:42;;;;;;;28.23;4.50;;;23.40;99.90;;;;;;4985215;28;20457;-71
2022/06/03 14:16:34;;;;;;;7.37;4.20;;;23.30;99.90;;;;;;4983980;28;20482;-71
2022/06/03 14:19:42;;;;;;;5.30;4.80;;;23.30;99.90;;;;;;4984880;28;20464;-71
2022/06/03 14:22:34;;;;;;;6.23;4.13;;;23.10;99.90;;;;;;4984114;28;20501;-72
2022/06/03 14:25:25;;;;;;;9.10;4.30;;;23.00;99.90;;;;;;4986053;28;20450;-72
2022/06/03 14:28:18;;;;;;;5.47;4.57;;;23.00;99.90;;;;;;4984560;28;20454;-71
2022/06/03 14:31:15;;;;;;;5.33;4.60;;;22.80;99.90;;;;;;4990026;28;20494;-72
2022/06/03 14:34:12;;;;;;;6.40;4.77;;;22.60;99.90;;;;;;4985997;28;20814;-71
2022/06/03 14:37:02;;;;;;;5.57;5.00;;;22.40;99.90;;;;;;4984327;28;20522;-72
2022/06/03 14:39:51;;;;;;;5.97;5.30;;;22.20;99.90;;;;;;4985121;28;20453;-71
2022/06/03 14:42:41;;;;;;;5.90;5.10;;;22.20;99.90;;;;;;4987625;28;20819;-72
2022/06/03 14:45:33;;;;;;;5.37;4.80;;;22.10;99.90;;;;;;4983714;28;20438;-72
2022/06/03 14:48:22;;;;;;;6.43;4.47;;;22.00;99.90;;;;;;4982929;28;20817;-72
2022/06/03 14:51:12;;;;;;;5.97;4.40;;;22.00;99.90;;;;;;4984701;28;20446;-71
2022/06/03 14:54:04;;;;;;;10.40;4.77;;;22.00;99.90;;;;;;4986195;28;20455;-71
2022/06/03 14:56:53;;;;;;;10.60;5.30;;;22.00;99.90;;;;;;4981959;28;20522;-71
2022/06/03 15:00:09;;;;;;;6.93;4.70;;;22.00;99.90;;;;;;4989615;28;20646;-71
2022/06/03 15:03:05;;;;;;;10.23;6.00;;;22.00;99.90;;;;;;4985800;28;20470;-71
2022/06/03 15:05:54;;;;;;;16.83;6.67;;;21.90;99.90;;;;;;4986983;28;20825;-71
2022/06/03 15:08:45;;;;;;;13.47;6.80;;;21.80;99.90;;;;;;4986231;28;20533;-71
2022/06/03 15:11:37;;;;;;;10.53;6.80;;;21.60;99.90;;;;;;4988046;28;20450;-70
2022/06/03 15:14:25;;;;;;;18.77;8.27;;;21.50;99.90;;;;;;4980338;28;20454;-71
2022/06/03 15:17:13;;;;;;;16.47;7.17;;;21.30;99.90;;;;;;4989281;28;20506;-71
2022/06/03 15:20:02;;;;;;;11.20;8.10;;;21.20;99.90;;;;;;4983538;28;20493;-71
2022/06/03 15:22:52;;;;;;;11.57;6.90;;;21.30;99.90;;;;;;4985267;28;20454;-71
2022/06/03 15:25:44;;;;;;;15.53;8.70;;;21.30;99.90;;;;;;4981983;28;20478;-71
2022/06/03 15:28:31;;;;;;;12.60;8.23;;;21.30;99.90;;;;;;4987460;28;20454;-71
2022/06/03 15:31:18;;;;;;;12.50;7.47;;;21.40;99.90;;;;;;4978561;28;20445;-71
2022/06/03 15:34:07;;;;;;;11.13;8.47;;;21.40;99.90;;;;;;4992020;28;20446;-72
2022/06/03 15:36:55;;;;;;;11.07;8.87;;;21.40;99.90;;;;;;4995055;28;21054;-71
2022/06/03 15:39:41;;;;;;;15.03;8.70;;;21.50;99.90;;;;;;4988220;28;20446;-71
2022/06/03 15:42:29;;;;;;;8.97;8.07;;;21.50;99.90;;;;;;4988859;28;20430;-71
2022/06/03 15:45:37;;;;;;;10.90;8.23;;;21.50;99.90;;;;;;4984147;28;20510;-71
2022/06/03 15:48:24;;;;;;;8.17;7.47;;;21.50;99.90;;;;;;4988226;28;20449;-71
2022/06/03 15:51:17;;;;;;;17.33;8.57;;;21.50;99.90;;;;;;4986072;28;20428;-71
2022/06/03 15:54:04;;;;;;;9.20;7.80;;;21.50;99.90;;;;;;4984142;28;20458;-71
2022/06/03 15:57:00;;;;;;;14.33;8.73;;;21.50;99.90;;;;;;4980093;28;20540;-71
2022/06/03 15:59:59;;;;;;;11.40;8.17;;;21.60;99.90;;;;;;4991765;28;20562;-72
2022/06/03 16:02:59;;;;;;;12.27;8.57;;;21.70;99.90;;;;;;4987282;28;20458;-72
2022/06/03 16:05:51;;;;;;;11.60;8.90;;;21.70;99.90;;;;;;4987312;28;20486;-70
2022/06/03 16:08:52;;;;;;;9.77;8.77;;;21.70;99.90;;;;;;4982852;28;20798;-72